Time;durP1;ratioP1;P1;durP2;ratioP2;P2;SDS_P1;SDS_P2;PMS_P1;PMS_P2;Temp;Humidity;BMP_temperature;BMP_pressure;BME280_temperature;BME280_humidity;BME280_pressure;Samples;Min_cycle;Max_cycle;Signal;HPM_P1;HPM_P2
2023/10/01 00:00:12;;;;;;;19.83;9.97;;;14.70;99.90;;;;;;5102223;28;20048;-45
2023/10/01 00:02:42;;;;;;;18.85;9.68;;;14.70;99.90;;;;;;5100878;28;20282;-46
2023/10/01 00:05:09;;;;;;;16.85;8.95;;;14.70;99.90;;;;;;5135291;27;20061;-45
2023/10/01 00:07:37;;;;;;;19.80;10.07;;;14.60;99.90;;;;;;5101694;28;20075;-47
2023/10/01 00:10:10;;;;;;;20.88;9.70;;;14.60;99.90;;;;;;5099936;28;20051;-46
2023/10/01 00:12:48;;;;;;;20.63;10.60;;;14.60;99.90;;;;;;5102099;28;20058;-46
2023/10/01 00:15:21;;;;;;;20.60;9.75;;;14.60;99.90;;;;;;5102427;28;20047;-45
2023/10/01 00:17:48;;;;;;;18.45;8.98;;;14.60;99.90;;;;;;5101992;28;20112;-46
2023/10/01 00:20:18;;;;;;;15.18;9.68;;;14.60;99.90;;;;;;5083326;28;20478;-49
2023/10/01 00:22:49;;;;;;;18.10;9.63;;;14.60;99.90;;;;;;5101737;28;20043;-45
2023/10/01 00:25:17;;;;;;;22.75;9.68;;;14.60;99.90;;;;;;5102129;28;20456;-48
2023/10/01 00:27:43;;;;;;;18.05;10.20;;;14.50;99.90;;;;;;5101311;27;20054;-44
2023/10/01 00:30:10;;;;;;;23.02;10.13;;;14.60;99.90;;;;;;5101373;28;20044;-46
2023/10/01 00:32:40;;;;;;;20.48;10.82;;;14.50;99.90;;;;;;5102047;28;20512;-46
2023/10/01 00:35:06;;;;;;;22.02;11.13;;;14.50;99.90;;;;;;5088890;28;20047;-45
2023/10/01 00:37:35;;;;;;;18.58;9.90;;;14.50;99.90;;;;;;5101802;28;20125;-49
2023/10/01 00:40:05;;;;;;;17.88;10.93;;;14.50;99.90;;;;;;5100537;28;20075;-49
2023/10/01 00:42:33;;;;;;;18.10;10.43;;;14.50;99.90;;;;;;5082875;28;20035;-47
2023/10/01 00:44:58;;;;;;;20.30;10.70;;;14.50;99.90;;;;;;5101465;28;20046;-45
2023/10/01 00:47:28;;;;;;;16.63;10.48;;;14.50;99.90;;;;;;5101051;28;20703;-48
2023/10/01 00:49:57;;;;;;;20.05;11.50;;;14.50;99.90;;;;;;5100936;28;20057;-49
2023/10/01 00:52:23;;;;;;;22.80;12.07;;;14.50;99.90;;;;;;5101288;28;20051;-45
2023/10/01 00:54:51;;;;;;;18.27;11.68;;;14.60;99.90;;;;;;5099814;28;20410;-49
2023/10/01 00:57:17;;;;;;;22.50;11.90;;;14.60;99.90;;;;;;5101007;28;20071;-49
2023/10/01 00:59:43;;;;;;;21.65;12.68;;;14.50;99.90;;;;;;5099032;28;20646;-47
2023/10/01 01:02:10;;;;;;;23.25;12.35;;;14.50;99.90;;;;;;5096226;27;20127;-46
2023/10/01 01:04:42;;;;;;;24.35;13.50;;;14.50;99.90;;;;;;5101220;28;20040;-46
2023/10/01 01:07:20;;;;;;;18.55;12.48;;;14.50;99.90;;;;;;5099582;28;20151;-46
2023/10/01 01:09:47;;;;;;;24.42;13.07;;;14.50;99.90;;;;;;5098893;28;20197;-48
2023/10/01 01:12:13;;;;;;;20.48;12.88;;;14.50;99.90;;;;;;5100351;28;20084;-47
2023/10/01 01:14:45;;;;;;;21.90;14.35;;;14.50;99.90;;;;;;5099537;28;20515;-46
2023/10/01 01:17:14;;;;;;;20.73;14.48;;;14.50;99.90;;;;;;5081777;28;20097;-45
2023/10/01 01:19:42;;;;;;;19.15;13.40;;;14.50;99.90;;;;;;5098521;28;20047;-47
2023/10/01 01:22:28;;;;;;;28.92;14.63;;;14.50;99.90;;;;;;5098967;28;20115;-46
2023/10/01 01:24:57;;;;;;;23.63;14.20;;;14.50;99.90;;;;;;5099494;28;20043;-44
2023/10/01 01:27:23;;;;;;;23.52;14.75;;;14.50;99.90;;;;;;5098592;28;20058;-45
2023/10/01 01:29:50;;;;;;;27.58;15.07;;;14.50;99.90;;;;;;5098495;28;20397;-45
2023/10/01 01:32:16;;;;;;;22.75;15.93;;;14.50;99.90;;;;;;5100490;28;20114;-45
2023/10/01 01:34:46;;;;;;;24.42;15.43;;;14.50;99.90;;;;;;5098604;28;20048;-45
2023/10/01 01:37:36;;;;;;;25.75;15.27;;;14.50;99.90;;;;;;5100562;28;20102;-46
2023/10/01 01:40:09;;;;;;;21.90;14.65;;;14.50;99.90;;;;;;5088976;28;20522;-45
2023/10/01 01:42:34;;;;;;;23.73;15.38;;;14.50;99.90;;;;;;5099248;28;20175;-46
2023/10/01 01:47:45;;;;;;;23.40;15.85;;;14.50;99.90;;;;;;5099657;28;20051;-49
2023/10/01 01:50:21;;;;;;;22.10;15.10;;;14.50;99.90;;;;;;5099554;28;20055;-49
2023/10/01 01:52:51;;;;;;;25.98;16.27;;;14.50;99.90;;;;;;5099317;28;20047;-46
2023/10/01 01:55:26;;;;;;;21.13;15.18;;;14.50;99.90;;;;;;5100490;28;20038;-45
2023/10/01 01:58:08;;;;;;;32.38;16.55;;;14.50;99.90;;;;;;5085390;28;20051;-45
2023/10/01 02:00:37;;;;;;;22.65;16.38;;;14.50;99.90;;;;;;5099834;28;20391;-45
2023/10/01 02:03:17;;;;;;;29.63;16.70;;;14.50;99.90;;;;;;5096463;28;20043;-46
2023/10/01 02:05:47;;;;;;;26.52;16.05;;;14.50;99.90;;;;;;5098061;28;20210;-45
2023/10/01 02:08:23;;;;;;;28.42;17.52;;;14.50;99.90;;;;;;5095694;28;20349;-45
2023/10/01 02:10:54;;;;;;;25.13;15.70;;;14.60;99.90;;;;;;5097708;28;20101;-47
2023/10/01 02:13:21;;;;;;;20.90;16.38;;;14.50;99.90;;;;;;5080891;28;20045;-44
2023/10/01 02:15:47;;;;;;;24.55;15.88;;;14.50;99.90;;;;;;5080998;28;20184;-45
2023/10/01 02:18:17;;;;;;;23.17;15.70;;;14.50;99.90;;;;;;5098637;28;20046;-45
2023/10/01 02:20:51;;;;;;;23.17;16.75;;;14.50;99.90;;;;;;5099609;28;20036;-46
2023/10/01 02:23:26;;;;;;;25.02;16.33;;;14.50;99.90;;;;;;5098107;28;20274;-44
2023/10/01 02:25:57;;;;;;;22.58;15.32;;;14.50;99.90;;;;;;5098304;28;20050;-45
2023/10/01 02:28:26;;;;;;;25.00;15.25;;;14.50;99.90;;;;;;5097137;28;20077;-46
2023/10/01 02:31:00;;;;;;;20.88;15.32;;;14.60;99.90;;;;;;5097377;28;20792;-44
2023/10/01 02:33:54;;;;;;;17.73;15.23;;;14.50;99.90;;;;;;5086504;28;20059;-46
2023/10/01 02:36:12;;;;;;;25.20;15.30;;;14.60;99.90;;;;;;5098564;28;20044;-46
2023/10/01 02:38:45;;;;;;;21.15;15.10;;;14.50;99.90;;;;;;5099159;28;20228;-44
2023/10/01 02:41:14;;;;;;;22.20;15.55;;;14.50;99.90;;;;;;5097352;28;20582;-46
2023/10/01 02:43:45;;;;;;;22.60;16.40;;;14.50;99.90;;;;;;5070542;28;20531;-46
2023/10/01 02:46:13;;;;;;;18.15;14.80;;;14.50;99.90;;;;;;5096195;28;20096;-46
2023/10/01 02:48:42;;;;;;;24.02;14.73;;;14.50;99.90;;;;;;5097688;28;20040;-45
2023/10/01 02:51:14;;;;;;;22.17;15.75;;;14.50;99.90;;;;;;5099159;28;20070;-45
2023/10/01 02:54:05;;;;;;;24.25;14.82;;;14.50;99.90;;;;;;5099321;28;20054;-46
2023/10/01 02:56:34;;;;;;;20.88;14.80;;;14.50;99.90;;;;;;5091859;28;20063;-44
2023/10/01 02:59:12;;;;;;;19.25;15.40;;;14.60;99.90;;;;;;5098820;28;20159;-45
2023/10/01 03:01:39;;;;;;;21.05;14.70;;;14.50;99.90;;;;;;5094666;28;20070;-45
2023/10/01 03:04:14;;;;;;;22.15;15.95;;;14.50;99.90;;;;;;5095427;28;20051;-46
2023/10/01 03:06:52;;;;;;;20.38;14.40;;;14.50;99.90;;;;;;5098113;28;20075;-46
2023/10/01 03:09:34;;;;;;;23.77;14.90;;;14.50;99.90;;;;;;5085859;28;20139;-47
2023/10/01 03:15:17;;;;;;;22.98;14.90;;;14.60;99.90;;;;;;5098498;28;20245;-46
2023/10/01 03:17:58;;;;;;;19.60;15.70;;;14.60;99.90;;;;;;5087821;28;20421;-45
2023/10/01 03:23:12;;;;;;;22.83;14.00;;;14.60;99.90;;;;;;5097016;28;20051;-46
2023/10/01 03:25:56;;;;;;;21.30;14.73;;;14.60;99.90;;;;;;5098221;28;20027;-46
2023/10/01 03:28:26;;;;;;;24.70;14.48;;;14.60;99.90;;;;;;5097810;28;20355;-46
2023/10/01 03:31:06;;;;;;;19.67;13.85;;;14.60;99.90;;;;;;5096846;28;20035;-45
2023/10/01 03:33:33;;;;;;;19.20;14.20;;;14.60;99.90;;;;;;5085990;28;20096;-45
2023/10/01 03:35:58;;;;;;;23.80;15.02;;;14.60;99.90;;;;;;5096612;28;20043;-47
2023/10/01 03:38:25;;;;;;;16.65;14.15;;;14.60;99.90;;;;;;5080349;28;20517;-47
2023/10/01 03:43:32;;;;;;;22.35;15.00;;;14.60;99.90;;;;;;5090037;28;20048;-45
2023/10/01 03:46:19;;;;;;;21.20;14.75;;;14.60;99.90;;;;;;5091742;28;20093;-45
2023/10/01 03:54:26;;;;;;;21.02;14.27;;;14.60;99.90;;;;;;5098727;28;20476;-45
2023/10/01 03:56:58;;;;;;;18.30;13.48;;;14.60;99.90;;;;;;5097690;28;20044;-46
2023/10/01 03:59:27;;;;;;;21.75;13.90;;;14.60;99.90;;;;;;5097704;28;20056;-48
2023/10/01 04:01:58;;;;;;;18.85;13.52;;;14.60;99.90;;;;;;5074424;28;20356;-46
2023/10/01 04:04:31;;;;;;;18.45;13.27;;;14.60;99.90;;;;;;5090211;28;20070;-45
2023/10/01 04:07:00;;;;;;;19.20;13.18;;;14.60;99.90;;;;;;5096687;28;20028;-45
2023/10/01 04:09:28;;;;;;;21.58;14.25;;;14.60;99.90;;;;;;5097529;28;20043;-45
2023/10/01 04:12:18;;;;;;;21.02;13.38;;;14.60;99.90;;;;;;5079293;28;20071;-45
2023/10/01 04:14:49;;;;;;;22.80;14.20;;;14.60;99.90;;;;;;5100781;28;20444;-45
2023/10/01 04:17:18;;;;;;;19.55;12.77;;;14.60;99.90;;;;;;5101506;28;20348;-46
2023/10/01 04:19:57;;;;;;;18.58;12.43;;;14.60;99.90;;;;;;5101275;27;20403;-45
2023/10/01 04:22:25;;;;;;;19.27;11.70;;;14.60;99.90;;;;;;5100141;28;20055;-46
2023/10/01 04:25:00;;;;;;;19.50;13.00;;;14.60;99.90;;;;;;5101534;28;20110;-45
2023/10/01 04:27:34;;;;;;;19.65;11.55;;;14.60;99.90;;;;;;5101059;28;20245;-45
2023/10/01 04:30:01;;;;;;;15.88;12.25;;;14.60;99.90;;;;;;5100506;28;20040;-46
2023/10/01 04:32:30;;;;;;;19.75;12.52;;;14.60;99.90;;;;;;5101425;28;20048;-46
2023/10/01 04:34:59;;;;;;;19.10;12.50;;;14.60;99.90;;;;;;5101272;28;20465;-47
2023/10/01 04:37:36;;;;;;;18.33;11.85;;;14.60;99.90;;;;;;5101056;28;20063;-46
2023/10/01 04:40:31;;;;;;;18.05;12.57;;;14.60;99.90;;;;;;5087042;28;20044;-45
2023/10/01 04:42:52;;;;;;;17.35;11.68;;;14.60;99.90;;;;;;5097351;28;20090;-47
2023/10/01 04:45:24;;;;;;;15.43;11.95;;;14.60;99.90;;;;;;5090944;28;20142;-45
2023/10/01 04:47:55;;;;;;;19.35;12.90;;;14.60;99.90;;;;;;5100765;28;20116;-45
2023/10/01 04:50:29;;;;;;;17.33;11.48;;;14.60;99.90;;;;;;5099836;28;20210;-48
2023/10/01 04:53:01;;;;;;;16.90;12.40;;;14.60;99.90;;;;;;5101131;28;20043;-46
2023/10/01 04:55:28;;;;;;;18.90;12.55;;;14.60;99.90;;;;;;5101365;28;20395;-49
2023/10/01 04:57:56;;;;;;;18.92;12.90;;;14.60;99.90;;;;;;5099984;28;20064;-46
2023/10/01 05:00:25;;;;;;;23.20;13.23;;;14.60;99.90;;;;;;5100921;28;20131;-45
2023/10/01 05:02:52;;;;;;;19.05;13.27;;;14.50;99.90;;;;;;5098948;28;20327;-46
2023/10/01 05:05:25;;;;;;;22.10;13.40;;;14.50;99.90;;;;;;5099446;28;20052;-44
2023/10/01 05:07:57;;;;;;;;;;;14.40;99.90;;;;;;5099085;28;20050;-45
2023/10/01 05:10:26;;;;;;;24.92;12.90;;;14.40;99.90;;;;;;5099761;28;20418;-46
2023/10/01 05:12:58;;;;;;;19.40;12.30;;;14.40;99.90;;;;;;5101118;28;20043;-45
2023/10/01 05:15:35;;;;;;;22.38;13.30;;;14.40;99.90;;;;;;5101516;28;20035;-45
2023/10/01 05:18:04;;;;;;;17.27;11.82;;;14.40;99.90;;;;;;5098952;28;20040;-48
2023/10/01 05:20:31;;;;;;;20.85;12.73;;;14.40;99.90;;;;;;5087860;28;20562;-46
2023/10/01 05:22:59;;;;;;;18.80;11.75;;;14.40;99.90;;;;;;5100455;28;20453;-48
2023/10/01 05:25:26;;;;;;;22.35;12.75;;;14.40;99.90;;;;;;5100308;28;20047;-45
2023/10/01 05:27:58;;;;;;;21.42;11.57;;;14.40;99.90;;;;;;5098677;28;20071;-47
2023/10/01 05:30:39;;;;;;;21.38;12.35;;;14.40;99.90;;;;;;5099312;28;20058;-45
2023/10/01 05:33:06;;;;;;;19.75;11.10;;;14.40;99.90;;;;;;5081870;28;20460;-46
2023/10/01 05:35:40;;;;;;;18.77;11.30;;;14.40;99.90;;;;;;5099371;28;20127;-49
2023/10/01 05:38:10;;;;;;;15.23;12.50;;;14.40;99.90;;;;;;5100019;28;20071;-47
2023/10/01 05:40:37;;;;;;;20.63;12.32;;;14.40;99.90;;;;;;5099300;28;20062;-46
2023/10/01 05:43:13;;;;;;;18.90;11.43;;;14.40;99.90;;;;;;5095453;28;20069;-46
2023/10/01 05:45:44;;;;;;;19.35;11.02;;;14.40;99.90;;;;;;5092914;28;20073;-45
2023/10/01 05:48:10;;;;;;;20.85;11.80;;;14.50;99.90;;;;;;5086370;28;20297;-46
2023/10/01 05:50:41;;;;;;;17.83;11.48;;;14.40;99.90;;;;;;5098660;28;20267;-48
2023/10/01 05:53:09;;;;;;;17.63;11.55;;;14.40;99.90;;;;;;5100199;28;20046;-46
2023/10/01 05:55:37;;;;;;;16.77;11.30;;;14.40;99.90;;;;;;5100115;28;20717;-45
2023/10/01 05:58:13;;;;;;;16.42;11.57;;;14.40;99.90;;;;;;5098942;28;20503;-46
2023/10/01 06:00:45;;;;;;;17.38;10.93;;;14.50;99.90;;;;;;5098331;28;20051;-46
2023/10/01 06:03:15;;;;;;;17.85;12.07;;;14.40;99.90;;;;;;5097842;28;20552;-49
2023/10/01 06:05:50;;;;;;;18.60;11.52;;;14.50;99.90;;;;;;5097504;28;20176;-49
2023/10/01 06:08:25;;;;;;;19.88;12.13;;;14.50;99.90;;;;;;5099227;27;20085;-45
2023/10/01 06:11:04;;;;;;;20.73;11.95;;;14.50;99.90;;;;;;5086838;28;20472;-47
2023/10/01 06:13:31;;;;;;;16.23;10.90;;;14.50;99.90;;;;;;5099388;28;20086;-47
2023/10/01 06:16:16;;;;;;;17.08;11.32;;;14.50;99.90;;;;;;5099216;28;20105;-48
2023/10/01 06:18:56;;;;;;;19.70;13.10;;;14.50;99.90;;;;;;5098604;28;20039;-48
2023/10/01 06:21:27;;;;;;;20.77;11.50;;;14.50;99.90;;;;;;5099355;28;20471;-46
2023/10/01 06:23:58;;;;;;;18.55;11.13;;;14.60;99.90;;;;;;5098420;28;20467;-46
2023/10/01 06:26:33;;;;;;;19.05;12.10;;;14.60;99.90;;;;;;5097199;28;20089;-45
2023/10/01 06:29:02;;;;;;;18.80;12.00;;;14.60;99.90;;;;;;5096883;28;20082;-45
2023/10/01 06:31:28;;;;;;;17.75;11.25;;;14.60;99.90;;;;;;5099238;28;20112;-46
2023/10/01 06:33:53;;;;;;;21.58;11.02;;;14.60;99.90;;;;;;5097544;28;20039;-45
2023/10/01 06:36:21;;;;;;;24.48;11.70;;;14.60;99.90;;;;;;5098558;28;20387;-47
2023/10/01 06:38:48;;;;;;;17.83;11.02;;;14.70;99.90;;;;;;5098372;28;20042;-46
2023/10/01 06:41:19;;;;;;;23.63;11.60;;;14.70;99.90;;;;;;5131061;27;20281;-45
2023/10/01 06:43:48;;;;;;;18.02;10.60;;;14.70;99.90;;;;;;5095136;28;20040;-46
2023/10/01 06:46:27;;;;;;;19.38;11.32;;;14.70;99.90;;;;;;5098319;28;20322;-46
2023/10/01 06:48:56;;;;;;;15.68;10.65;;;14.70;99.90;;;;;;5079768;28;20035;-45
2023/10/01 06:51:24;;;;;;;17.05;11.63;;;14.80;99.90;;;;;;5096916;28;20142;-45
2023/10/01 06:54:05;;;;;;;17.48;10.82;;;14.80;99.90;;;;;;5098475;28;20113;-45
2023/10/01 06:56:33;;;;;;;20.13;10.43;;;14.90;99.90;;;;;;5098247;28;20475;-45
2023/10/01 07:01:35;;;;;;;19.45;10.25;;;15.00;99.90;;;;;;5096350;28;20136;-45
2023/10/01 07:04:02;;;;;;;19.55;10.35;;;15.00;99.90;;;;;;5095573;28;20172;-46
2023/10/01 07:06:28;;;;;;;17.67;9.98;;;15.00;99.90;;;;;;5097263;28;20463;-45
2023/10/01 07:08:55;;;;;;;16.83;9.35;;;15.00;99.90;;;;;;5096683;28;20040;-47
2023/10/01 07:11:21;;;;;;;16.38;9.80;;;15.10;99.90;;;;;;5097413;28;20159;-46
2023/10/01 07:13:48;;;;;;;17.80;9.98;;;15.10;99.90;;;;;;5080266;28;20079;-46
2023/10/01 07:16:18;;;;;;;17.23;9.52;;;15.10;99.90;;;;;;5098419;28;20051;-45
2023/10/01 07:18:44;;;;;;;16.95;10.95;;;15.10;99.90;;;;;;5096362;28;20390;-45
2023/10/01 07:21:11;;;;;;;21.30;10.15;;;15.20;99.90;;;;;;5096852;28;20040;-46
2023/10/01 07:23:38;;;;;;;17.55;10.07;;;15.20;99.90;;;;;;5096786;28;20090;-44
2023/10/01 07:26:12;;;;;;;18.13;9.55;;;15.20;99.90;;;;;;5096582;28;20129;-44
2023/10/01 07:28:41;;;;;;;18.98;10.73;;;15.30;99.90;;;;;;5098235;28;20430;-45
2023/10/01 07:31:07;;;;;;;21.40;10.75;;;15.30;99.90;;;;;;5098456;28;20046;-44
2023/10/01 07:33:33;;;;;;;18.50;9.63;;;15.30;99.90;;;;;;5098930;28;20040;-44
2023/10/01 07:35:59;;;;;;;19.00;9.40;;;15.40;99.90;;;;;;5095590;28;20043;-45
2023/10/01 07:38:26;;;;;;;17.23;9.77;;;15.40;99.90;;;;;;5097952;28;20208;-45
2023/10/01 07:40:58;;;;;;;19.63;10.05;;;15.50;99.90;;;;;;5098273;28;20054;-45
2023/10/01 07:43:27;;;;;;;17.70;9.68;;;15.60;99.90;;;;;;5097306;28;20032;-45
2023/10/01 07:45:58;;;;;;;18.08;9.40;;;15.80;99.90;;;;;;5098630;28;20490;-45
2023/10/01 07:48:27;;;;;;;14.80;8.63;;;15.90;99.90;;;;;;5098063;28;20047;-45
2023/10/01 07:50:54;;;;;;;19.00;9.02;;;16.00;99.90;;;;;;5102452;28;20989;-45
2023/10/01 07:53:20;;;;;;;21.45;9.57;;;16.10;99.90;;;;;;5101111;28;20047;-46
2023/10/01 07:55:48;;;;;;;18.88;10.13;;;16.20;99.90;;;;;;5083424;28;20043;-46
2023/10/01 07:58:24;;;;;;;20.05;9.93;;;16.30;99.90;;;;;;5102297;28;20058;-45
2023/10/01 08:00:59;;;;;;;17.48;9.48;;;16.30;99.90;;;;;;5099675;28;20494;-44
2023/10/01 08:06:05;;;;;;;22.42;9.38;;;16.40;99.90;;;;;;5101312;27;20124;-46
2023/10/01 08:08:47;;;;;;;13.45;8.52;;;16.50;99.90;;;;;;5097923;28;20510;-45
2023/10/01 08:13:57;;;;;;;21.15;9.05;;;16.60;99.90;;;;;;5100909;28;20124;-46
2023/10/01 08:16:23;;;;;;;19.83;9.75;;;16.60;99.90;;;;;;5098972;28;20055;-45
2023/10/01 08:18:57;;;;;;;16.58;9.25;;;16.70;99.90;;;;;;5097764;28;20063;-46
2023/10/01 08:21:36;;;;;;;17.92;9.43;;;16.70;99.90;;;;;;5082609;28;20040;-47
2023/10/01 08:24:09;;;;;;;19.35;9.88;;;16.80;99.90;;;;;;5134192;27;20055;-45
2023/10/01 08:26:49;;;;;;;;;;;16.80;99.90;;;;;;5098408;28;20227;-45
2023/10/01 08:29:15;;;;;;;19.33;9.10;;;16.90;99.90;;;;;;5098212;28;19919;-45
2023/10/01 08:34:24;;;;;;;18.17;9.20;;;17.20;99.90;;;;;;5132725;27;20063;-47
2023/10/01 08:36:57;;;;;;;18.58;8.77;;;17.30;99.90;;;;;;5098707;28;20541;-46
2023/10/01 08:42:12;;;;;;;24.15;9.30;;;17.50;99.90;;;;;;5100451;28;20078;-45
2023/10/01 08:44:44;;;;;;;19.55;9.75;;;17.60;99.90;;;;;;5100451;28;20039;-46
2023/10/01 08:47:22;;;;;;;16.70;8.30;;;17.60;99.90;;;;;;5100803;28;20047;-45
2023/10/01 08:49:52;;;;;;;18.20;10.20;;;17.70;99.90;;;;;;5100759;28;20089;-45
2023/10/01 08:52:25;;;;;;;18.80;9.48;;;17.70;99.90;;;;;;5101018;27;20336;-46
2023/10/01 08:54:55;;;;;;;16.90;10.15;;;17.80;99.90;;;;;;5100976;28;20040;-45
2023/10/01 08:57:36;;;;;;;21.02;10.68;;;17.80;99.90;;;;;;5099818;27;20075;-45
2023/10/01 09:00:17;;;;;;;17.90;9.43;;;17.80;99.90;;;;;;5100238;28;20047;-45
2023/10/01 09:02:49;;;;;;;16.52;9.93;;;17.80;99.90;;;;;;5095281;28;20467;-46
2023/10/01 09:05:23;;;;;;;15.88;9.50;;;17.80;99.90;;;;;;5099836;28;20036;-45
2023/10/01 09:07:51;;;;;;;20.13;10.95;;;17.90;99.90;;;;;;5099644;28;20044;-47
2023/10/01 09:10:19;;;;;;;18.60;9.27;;;17.90;99.90;;;;;;5101613;28;20065;-46
2023/10/01 09:12:48;;;;;;;18.02;9.70;;;18.00;99.90;;;;;;5072436;28;20407;-45
2023/10/01 09:15:29;;;;;;;20.05;9.45;;;18.20;99.90;;;;;;5082512;28;20043;-49
2023/10/01 09:17:58;;;;;;;17.08;9.07;;;18.20;99.90;;;;;;5092882;28;20427;-46
2023/10/01 09:20:42;;;;;;;17.33;9.40;;;18.20;99.90;;;;;;5100795;28;20074;-47
2023/10/01 09:23:08;;;;;;;21.02;11.57;;;18.20;99.90;;;;;;5095010;28;20075;-47
2023/10/01 09:25:39;;;;;;;19.02;10.63;;;18.20;99.90;;;;;;5100413;28;20540;-46
2023/10/01 09:28:22;;;;;;;16.38;9.05;;;18.10;99.90;;;;;;5098729;28;20039;-47
2023/10/01 09:31:01;;;;;;;19.05;10.13;;;18.20;99.90;;;;;;5099657;28;20047;-48
2023/10/01 09:33:29;;;;;;;19.95;9.98;;;18.30;99.90;;;;;;5120882;27;20051;-46
2023/10/01 09:36:01;;;;;;;18.20;9.23;;;18.50;99.90;;;;;;5099605;28;20071;-45
2023/10/01 09:38:29;;;;;;;18.50;10.77;;;18.70;99.90;;;;;;5099040;28;20635;-46
2023/10/01 09:40:56;;;;;;;22.67;10.27;;;18.80;99.90;;;;;;5100644;27;20040;-46
2023/10/01 09:43:27;;;;;;;21.10;10.52;;;18.90;99.90;;;;;;5100470;28;20093;-45
2023/10/01 09:45:54;;;;;;;20.85;9.80;;;18.90;99.90;;;;;;5098631;28;20044;-47
2023/10/01 09:48:29;;;;;;;18.98;10.65;;;18.90;99.90;;;;;;5099384;28;20043;-45
2023/10/01 09:51:13;;;;;;;21.00;9.57;;;19.00;99.90;;;;;;5100057;28;20464;-45
2023/10/01 09:54:00;;;;;;;19.63;10.85;;;19.00;99.90;;;;;;5099115;28;20324;-45
2023/10/01 09:56:26;;;;;;;18.33;9.82;;;19.10;99.90;;;;;;5088885;28;20241;-47
2023/10/01 09:59:01;;;;;;;18.25;10.13;;;19.00;99.90;;;;;;5100231;28;20421;-46
2023/10/01 10:01:30;;;;;;;22.63;10.88;;;19.00;99.90;;;;;;5098579;28;20702;-45
2023/10/01 10:03:59;;;;;;;20.73;10.38;;;19.00;99.90;;;;;;5097026;28;20035;-45
2023/10/01 10:06:25;;;;;;;22.23;11.05;;;19.10;99.90;;;;;;5100164;28;20159;-47
2023/10/01 10:09:03;;;;;;;15.95;10.05;;;19.20;99.90;;;;;;5098453;28;20040;-45
2023/10/01 10:11:40;;;;;;;19.50;10.85;;;19.40;99.90;;;;;;5100081;28;20039;-48
2023/10/01 10:14:27;;;;;;;20.75;10.57;;;19.50;99.90;;;;;;5088002;28;20044;-47
2023/10/01 10:17:00;;;;;;;18.08;11.18;;;19.60;99.90;;;;;;5097708;28;20524;-45
2023/10/01 10:19:30;;;;;;;18.98;9.75;;;19.70;99.90;;;;;;5099569;28;20039;-45
2023/10/01 10:24:29;;;;;;;19.83;10.68;;;19.90;99.90;;;;;;5097466;28;20127;-46
2023/10/01 10:27:03;;;;;;;19.13;10.30;;;19.90;99.90;;;;;;5094762;28;20039;-46
2023/10/01 10:29:57;;;;;;;21.13;11.00;;;20.00;99.90;;;;;;5133276;27;20489;-46
2023/10/01 10:32:28;;;;;;;22.33;11.80;;;20.00;99.90;;;;;;5100299;28;20054;-45
2023/10/01 10:35:06;;;;;;;18.17;10.13;;;20.00;99.90;;;;;;5098051;28;20573;-46
2023/10/01 10:37:35;;;;;;;19.20;10.63;;;20.00;99.90;;;;;;5097608;28;20297;-48
2023/10/01 10:40:22;;;;;;;19.08;10.82;;;20.00;99.90;;;;;;5099670;28;20051;-46
2023/10/01 10:42:56;;;;;;;15.48;9.75;;;20.10;99.90;;;;;;5080648;28;20048;-50
2023/10/01 10:45:23;;;;;;;17.70;10.15;;;20.10;99.90;;;;;;5099279;28;20047;-46
2023/10/01 10:47:58;;;;;;;20.17;9.85;;;20.20;99.90;;;;;;5099466;28;20455;-47
2023/10/01 10:50:53;;;;;;;18.50;10.75;;;20.30;99.90;;;;;;5099844;28;20669;-48
2023/10/01 10:53:20;;;;;;;19.98;10.68;;;20.30;99.90;;;;;;5129325;27;20063;-48
2023/10/01 10:56:00;;;;;;;18.40;10.55;;;20.40;99.90;;;;;;5098461;28;21478;-50
2023/10/01 10:58:29;;;;;;;17.42;9.32;;;20.30;99.90;;;;;;5100231;28;20135;-48
2023/10/01 11:00:56;;;;;;;19.52;10.05;;;20.40;99.90;;;;;;5099835;28;20704;-48
2023/10/01 11:03:41;;;;;;;16.90;10.30;;;20.50;99.90;;;;;;5081556;28;20079;-49
2023/10/01 11:06:24;;;;;;;14.98;10.10;;;20.60;99.90;;;;;;5098139;28;20047;-48
2023/10/01 11:08:51;;;;;;;20.30;11.27;;;20.60;99.90;;;;;;5099087;28;20174;-50
2023/10/01 11:11:43;;;;;;;19.02;11.02;;;20.50;99.90;;;;;;5099574;28;20058;-49
2023/10/01 11:14:16;;;;;;;19.13;11.02;;;20.60;99.90;;;;;;5115131;27;20103;-46
2023/10/01 11:16:44;;;;;;;16.60;9.93;;;20.60;99.90;;;;;;5097569;28;20161;-47
2023/10/01 11:19:15;;;;;;;22.65;11.55;;;20.70;99.90;;;;;;5099032;28;20159;-50
2023/10/01 11:21:55;;;;;;;18.30;10.57;;;20.60;99.90;;;;;;5099414;28;20051;-47
2023/10/01 11:24:24;;;;;;;23.38;11.43;;;20.60;99.90;;;;;;5097500;28;20044;-46
2023/10/01 11:27:25;;;;;;;18.98;10.15;;;20.50;99.90;;;;;;5097422;28;20494;-45
2023/10/01 11:30:13;;;;;;;17.55;10.40;;;20.60;99.90;;;;;;5096636;28;20409;-47
2023/10/01 11:33:03;;;;;;;19.73;10.55;;;20.60;99.90;;;;;;5097276;28;20031;-46
2023/10/01 11:35:34;;;;;;;21.30;11.15;;;20.80;99.90;;;;;;5128326;27;20108;-48
2023/10/01 11:38:06;;;;;;;18.85;10.48;;;20.80;99.90;;;;;;5080631;28;20160;-46
2023/10/01 11:43:35;;;;;;;18.13;10.43;;;21.20;99.90;;;;;;5096432;28;20051;-47
2023/10/01 11:46:23;;;;;;;18.42;10.50;;;21.10;99.90;;;;;;5098544;28;20039;-47
2023/10/01 11:49:04;;;;;;;17.90;10.25;;;21.10;99.90;;;;;;5098044;28;20036;-45
2023/10/01 11:51:54;;;;;;;18.65;11.10;;;21.20;99.90;;;;;;5097032;28;20051;-46
2023/10/01 11:54:22;;;;;;;20.50;11.95;;;21.20;99.90;;;;;;5096958;28;20123;-46
2023/10/01 11:57:04;;;;;;;19.95;10.63;;;21.20;99.90;;;;;;5096910;28;20437;-47
2023/10/01 11:59:36;;;;;;;19.80;9.80;;;21.20;99.90;;;;;;5096415;28;20089;-47
2023/10/01 12:02:21;;;;;;;20.95;11.85;;;21.30;99.90;;;;;;5093286;28;20904;-46
2023/10/01 12:05:00;;;;;;;19.38;10.93;;;21.30;99.90;;;;;;5097336;28;20426;-47
2023/10/01 12:07:32;;;;;;;19.42;10.73;;;21.30;99.90;;;;;;5097866;28;20049;-45
2023/10/01 12:09:59;;;;;;;17.40;10.82;;;21.40;99.90;;;;;;5097620;28;20043;-46
2023/10/01 12:12:36;;;;;;;21.60;11.65;;;21.40;99.90;;;;;;5096553;28;20165;-46
2023/10/01 12:17:48;;;;;;;21.15;11.40;;;21.40;99.90;;;;;;5096495;28;20097;-46
2023/10/01 12:20:23;;;;;;;17.77;11.40;;;21.30;99.90;;;;;;5098117;28;20035;-45
2023/10/01 12:23:11;;;;;;;20.27;10.73;;;21.40;99.90;;;;;;5098373;28;20039;-48
2023/10/01 12:26:31;;;;;;;20.92;10.98;;;21.30;99.90;;;;;;5085686;28;20519;-47
2023/10/01 12:29:11;;;;;;;20.67;12.75;;;21.30;99.90;;;;;;5086032;28;20058;-45
2023/10/01 12:31:28;;;;;;;19.42;11.05;;;21.20;99.90;;;;;;5096591;28;20062;-46
2023/10/01 12:33:58;;;;;;;20.33;12.55;;;21.30;99.90;;;;;;5098365;28;20302;-47
2023/10/01 12:41:47;;;;;;;20.55;12.07;;;21.60;99.90;;;;;;5088787;28;20507;-48
2023/10/01 12:44:28;;;;;;;23.23;13.43;;;21.70;99.90;;;;;;5098481;28;20047;-46
2023/10/01 12:47:07;;;;;;;19.13;11.82;;;21.90;99.90;;;;;;5100170;28;20043;-46
2023/10/01 12:49:33;;;;;;;22.13;13.50;;;21.90;99.90;;;;;;5077198;28;20300;-47
2023/10/01 12:52:00;;;;;;;19.38;11.32;;;21.90;99.90;;;;;;5081639;28;20079;-46
2023/10/01 12:54:26;;;;;;;22.15;13.27;;;21.90;99.90;;;;;;5101949;28;20043;-46
2023/10/01 12:57:12;;;;;;;21.98;13.63;;;21.90;99.90;;;;;;5101730;28;20040;-45
2023/10/01 12:59:41;;;;;;;19.45;11.65;;;21.90;99.90;;;;;;5083708;28;20088;-46
2023/10/01 13:02:28;;;;;;;20.67;12.25;;;21.90;99.90;;;;;;5097862;28;20083;-45
2023/10/01 13:07:45;;;;;;;20.63;11.63;;;21.70;99.90;;;;;;5089601;28;20054;-45
2023/10/01 13:10:12;;;;;;;21.90;12.50;;;21.70;99.90;;;;;;5101912;28;20036;-46
2023/10/01 13:12:39;;;;;;;19.27;11.95;;;21.80;99.90;;;;;;5102389;28;20112;-46
2023/10/01 13:15:15;;;;;;;19.88;12.43;;;21.80;99.90;;;;;;5102062;28;20182;-46
2023/10/01 13:17:44;;;;;;;18.80;11.95;;;21.90;99.90;;;;;;5101812;28;20043;-46
2023/10/01 13:20:22;;;;;;;21.60;13.07;;;21.80;99.90;;;;;;5096538;28;20490;-46
2023/10/01 13:22:59;;;;;;;24.48;12.43;;;21.80;99.90;;;;;;5100911;28;20123;-46
2023/10/01 13:25:28;;;;;;;17.92;11.75;;;21.90;99.90;;;;;;5096907;28;20544;-46
2023/10/01 13:28:07;;;;;;;23.60;12.75;;;21.90;99.90;;;;;;5090091;28;20043;-46
2023/10/01 13:33:20;;;;;;;21.20;12.50;;;22.00;99.90;;;;;;5095534;28;20051;-46
2023/10/01 13:36:12;;;;;;;22.75;12.73;;;21.90;99.90;;;;;;5092588;28;20276;-47
2023/10/01 13:38:55;;;;;;;20.50;12.77;;;21.80;99.90;;;;;;5095195;28;20036;-47
2023/10/01 14:08:43;;;;;;;20.60;11.80;;;21.60;99.90;;;;;;5086821;28;20338;-46
2023/10/01 14:11:10;;;;;;;22.75;13.98;;;21.60;99.90;;;;;;5086161;28;20064;-47
2023/10/01 14:13:36;;;;;;;21.45;12.55;;;21.60;99.90;;;;;;5091009;28;20455;-48